Time,TemperatureF,DewpointF,PressureIn,WindDirection,WindDirectionDegrees,WindSpeedMPH,WindSpeedGustMPH,Humidity,HourlyPrecipIn,Conditions,Clouds,dailyrainin,SoftwareType,DateUTC
2013-05-03 00:06:00,49.3,42.4,30.32,North,11,7.0,18.0,77,0.00,,,0.00,Wunderground v.1.15,2013-05-03 07:06:00,
2013-05-03 00:12:00,49.5,42.6,30.32,North,360,7.0,7.0,77,0.00,,,0.00,Wunderground v.1.15,2013-05-03 07:12:00,
2013-05-03 00:21:00,49.4,42.1,30.32,NNW,345,3.0,3.0,76,0.00,,,0.00,Wunderground v.1.15,2013-05-03 07:21:00,
2013-05-03 00:27:00,49.4,42.1,30.32,North,360,4.0,4.0,76,0.00,,,0.00,Wunderground v.1.15,2013-05-03 07:27:00,
2013-05-03 00:37:00,49.4,42.1,30.32,NNW,338,3.0,8.0,76,0.00,,,0.00,Wunderground v.1.15,2013-05-03 07:37:00,
2013-05-03 00:46:00,49.4,42.1,30.32,NNW,348,2.0,6.0,76,0.00,,,0.00,Wunderground v.1.15,2013-05-03 07:46:00,
2013-05-03 00:52:00,49.2,42.0,30.32,North,355,2.0,4.0,76,0.00,,,0.00,Wunderground v.1.15,2013-05-03 07:52:00,
2013-05-03 01:02:00,49.1,41.9,30.32,NNE,14,2.0,2.0,76,0.00,,,0.00,Wunderground v.1.15,2013-05-03 08:02:00,
2013-05-03 01:11:00,49.0,41.8,30.32,NNE,15,2.0,2.0,76,0.00,,,0.00,Wunderground v.1.15,2013-05-03 08:11:00,
2013-05-03 01:17:00,49.0,41.8,30.32,NNE,15,1.0,3.0,76,0.00,,,0.00,Wunderground v.1.15,2013-05-03 08:17:00,
2013-05-03 01:22:00,49.0,41.8,30.32,NNW,327,2.0,6.0,76,0.00,,,0.00,Wunderground v.1.15,2013-05-03 08:22:00,
2013-05-03 01:32:00,48.5,42.0,30.33,North,5,5.0,9.0,78,0.00,,,0.00,Wunderground v.1.15,2013-05-03 08:32:00,
2013-05-03 01:42:00,47.9,42.0,30.32,North,360,6.0,6.0,80,0.00,,,0.00,Wunderground v.1.15,2013-05-03 08:42:00,
2013-05-03 01:52:00,47.7,42.2,30.32,NNE,15,5.0,5.0,81,0.00,,,0.00,Wunderground v.1.15,2013-05-03 08:52:00,
2013-05-03 01:57:00,47.6,42.1,30.32,North,11,3.0,6.0,81,0.00,,,0.00,Wunderground v.1.15,2013-05-03 08:57:00,
2013-05-03 02:07:00,47.5,42.0,30.32,NW,323,2.0,3.0,81,0.00,,,0.00,Wunderground v.1.15,2013-05-03 09:07:00,
2013-05-03 02:17:00,47.6,42.1,30.32,NNE,19,2.0,7.0,81,0.00,,,0.00,Wunderground v.1.15,2013-05-03 09:17:00,
2013-05-03 02:27:00,47.6,42.1,30.31,NNE,17,1.0,2.0,81,0.00,,,0.00,Wunderground v.1.15,2013-05-03 09:27:00,
2013-05-03 02:36:00,47.6,42.4,30.32,NNE,17,1.0,3.0,82,0.00,,,0.00,Wunderground v.1.15,2013-05-03 09:36:00,
2013-05-03 02:42:00,47.6,42.1,30.31,NNE,17,1.0,4.0,81,0.00,,,0.00,Wunderground v.1.15,2013-05-03 09:42:00,
2013-05-03 02:52:00,47.4,42.2,30.32,NNE,13,1.0,4.0,82,0.00,,,0.00,Wunderground v.1.15,2013-05-03 09:52:00,
2013-05-03 03:02:00,47.3,42.4,30.32,North,351,2.0,2.0,83,0.00,,,0.00,Wunderground v.1.15,2013-05-03 10:02:00,
2013-05-03 03:12:00,46.3,41.1,30.31,North,355,1.0,2.0,82,0.00,,,0.00,Wunderground v.1.15,2013-05-03 10:12:00,
2013-05-03 03:22:00,45.2,40.3,30.31,NE,34,2.0,4.0,83,0.00,,,0.00,Wunderground v.1.15,2013-05-03 10:22:00,
2013-05-03 03:27:00,44.9,40.4,30.31,NE,36,1.0,4.0,84,0.00,,,0.00,Wunderground v.1.15,2013-05-03 10:27:00,
2013-05-03 03:37:00,44.2,39.7,30.31,NE,36,0.0,2.0,84,0.00,,,0.00,Wunderground v.1.15,2013-05-03 10:37:00,
2013-05-03 03:47:00,44.2,40.0,30.31,NE,36,0.0,1.0,85,0.00,,,0.00,Wunderground v.1.15,2013-05-03 10:47:00,
2013-05-03 03:56:00,44.0,39.8,30.31,NE,36,0.0,1.0,85,0.00,,,0.00,Wunderground v.1.15,2013-05-03 10:56:00,
2013-05-03 04:02:00,43.6,39.1,30.31,NE,36,0.0,1.0,84,0.00,,,0.00,Wunderground v.1.15,2013-05-03 11:02:00,
2013-05-03 04:12:00,42.9,38.7,30.31,NE,37,2.0,4.0,85,0.00,,,0.00,Wunderground v.1.15,2013-05-03 11:12:00,
2013-05-03 04:17:00,42.6,38.7,30.31,NE,38,2.0,4.0,86,0.00,,,0.00,Wunderground v.1.15,2013-05-03 11:17:00,
2013-05-03 04:26:00,42.5,38.9,30.31,NE,38,1.0,2.0,87,0.00,,,0.00,Wunderground v.1.15,2013-05-03 11:26:00,
2013-05-03 04:32:00,42.3,38.7,30.31,NE,38,1.0,1.0,87,0.00,,,0.00,Wunderground v.1.15,2013-05-03 11:32:00,
2013-05-03 04:42:00,42.2,38.9,30.31,NE,38,1.0,2.0,88,0.00,,,0.00,Wunderground v.1.15,2013-05-03 11:42:00,
2013-05-03 04:52:00,42.0,38.7,30.31,NE,38,1.0,3.0,88,0.00,,,0.00,Wunderground v.1.15,2013-05-03 11:52:00,
2013-05-03 05:02:00,41.6,38.3,30.30,NE,38,1.0,3.0,88,0.00,,,0.00,Wunderground v.1.15,2013-05-03 12:02:00,
2013-05-03 05:12:00,41.4,38.4,30.30,NE,38,1.0,3.0,89,0.00,,,0.00,Wunderground v.1.15,2013-05-03 12:12:00,
2013-05-03 05:22:00,41.3,38.3,30.30,NE,38,2.0,2.0,89,0.00,,,0.00,Wunderground v.1.15,2013-05-03 12:22:00,
2013-05-03 05:31:00,41.6,38.9,30.30,NE,40,3.0,4.0,90,0.00,,,0.00,Wunderground v.1.15,2013-05-03 12:31:00,
2013-05-03 05:36:00,41.8,39.1,30.30,NE,41,3.0,4.0,90,0.00,,,0.00,Wunderground v.1.15,2013-05-03 12:36:00,
2013-05-03 05:42:00,41.8,39.1,30.30,NE,41,2.0,2.0,90,0.00,,,0.00,Wunderground v.1.15,2013-05-03 12:42:00,
2013-05-03 05:51:00,41.5,38.8,30.30,NE,41,2.0,3.0,90,0.00,,,0.00,Wunderground v.1.15,2013-05-03 12:51:00,
2013-05-03 05:57:00,41.6,38.9,30.30,NE,41,2.0,3.0,90,0.00,,,0.00,Wunderground v.1.15,2013-05-03 12:57:00,
2013-05-03 06:07:00,41.4,38.7,30.30,NE,41,1.0,2.0,90,0.00,,,0.00,Wunderground v.1.15,2013-05-03 13:07:00,
2013-05-03 06:17:00,41.3,38.9,30.30,NE,41,1.0,3.0,91,0.00,,,0.00,Wunderground v.1.15,2013-05-03 13:17:00,
2013-05-03 06:26:00,41.6,39.2,30.30,NE,40,2.0,2.0,91,0.00,,,0.00,Wunderground v.1.15,2013-05-03 13:26:00,
2013-05-03 06:32:00,41.6,39.2,30.30,NE,40,1.0,1.0,91,0.00,,,0.00,Wunderground v.1.15,2013-05-03 13:32:00,
2013-05-03 06:42:00,42.6,40.4,30.31,NE,41,0.0,2.0,92,0.00,,,0.00,Wunderground v.1.15,2013-05-03 13:42:00,
2013-05-03 06:52:00,43.5,41.3,30.31,NE,41,1.0,1.0,92,0.00,,,0.00,Wunderground v.1.15,2013-05-03 13:52:00,
2013-05-03 06:57:00,44.0,41.8,30.31,NE,41,1.0,2.0,92,0.00,,,0.00,Wunderground v.1.15,2013-05-03 13:57:00,
2013-05-03 07:07:00,44.9,42.4,30.31,NE,41,0.0,2.0,91,0.00,,,0.00,Wunderground v.1.15,2013-05-03 14:07:00,
2013-05-03 07:17:00,45.8,43.0,30.31,NE,41,0.0,3.0,90,0.00,,,0.00,Wunderground v.1.15,2013-05-03 14:17:00,
2013-05-03 07:27:00,46.6,43.5,30.31,NE,41,0.0,1.0,89,0.00,,,0.00,Wunderground v.1.15,2013-05-03 14:27:00,
2013-05-03 07:37:00,45.8,42.2,30.31,NE,40,1.0,2.0,87,0.00,,,0.00,Wunderground v.1.15,2013-05-03 14:37:00,
2013-05-03 07:47:00,46.3,43.2,30.32,NE,40,0.0,1.0,89,0.00,,,0.00,Wunderground v.1.15,2013-05-03 14:47:00,
2013-05-03 07:57:00,46.0,42.3,30.32,NE,40,2.0,3.0,87,0.00,,,0.00,Wunderground v.1.15,2013-05-03 14:57:00,
2013-05-03 08:07:00,45.9,42.5,30.32,NE,36,2.0,3.0,88,0.00,,,0.00,Wunderground v.1.15,2013-05-03 15:07:00,
2013-05-03 08:16:00,46.3,42.9,30.32,NE,36,1.0,4.0,88,0.00,,,0.00,Wunderground v.1.15,2013-05-03 15:16:00,
2013-05-03 08:22:00,46.7,43.6,30.32,NE,36,1.0,2.0,89,0.00,,,0.00,Wunderground v.1.15,2013-05-03 15:22:00,
2013-05-03 08:32:00,47.4,43.7,30.31,NE,36,0.0,1.0,87,0.00,,,0.00,Wunderground v.1.15,2013-05-03 15:32:00,
2013-05-03 08:42:00,47.6,43.9,30.31,North,350,2.0,3.0,87,0.00,,,0.00,Wunderground v.1.15,2013-05-03 15:42:00,
2013-05-03 08:51:00,47.9,44.2,30.31,North,350,1.0,3.0,87,0.00,,,0.00,Wunderground v.1.15,2013-05-03 15:51:00,
2013-05-03 08:57:00,48.1,44.1,30.31,North,350,2.0,3.0,86,0.00,,,0.00,Wunderground v.1.15,2013-05-03 15:57:00,
2013-05-03 09:07:00,48.6,44.3,30.31,NNW,331,3.0,5.0,85,0.00,,,0.00,Wunderground v.1.15,2013-05-03 16:07:00,
2013-05-03 09:17:00,49.0,44.4,30.30,NW,310,5.0,5.0,84,0.00,,,0.00,Wunderground v.1.15,2013-05-03 16:17:00,
2013-05-03 09:26:00,50.4,45.1,30.30,NW,304,4.0,5.0,82,0.00,,,0.00,Wunderground v.1.15,2013-05-03 16:26:00,
2013-05-03 09:32:00,50.6,45.0,30.30,NNW,342,5.0,5.0,81,0.00,,,0.00,Wunderground v.1.15,2013-05-03 16:32:00,
2013-05-03 09:42:00,51.1,45.5,30.30,NW,315,5.0,7.0,81,0.00,,,0.00,Wunderground v.1.15,2013-05-03 16:42:00,
2013-05-03 09:51:00,51.5,45.5,30.29,NW,313,5.0,8.0,80,0.00,,,0.00,Wunderground v.1.15,2013-05-03 16:51:00,
2013-05-03 09:56:00,51.6,45.6,30.30,NW,311,5.0,10.0,80,0.00,,,0.00,Wunderground v.1.15,2013-05-03 16:56:00,
2013-05-03 10:02:00,51.9,45.9,30.29,NW,305,6.0,6.0,80,0.00,,,0.00,Wunderground v.1.15,2013-05-03 17:02:00,
2013-05-03 10:11:00,52.2,46.2,30.29,NNW,333,5.0,9.0,80,0.00,,,0.00,Wunderground v.1.15,2013-05-03 17:11:00,
2013-05-03 10:17:00,52.3,46.6,30.29,NNE,12,5.0,9.0,81,0.00,,,0.00,Wunderground v.1.15,2013-05-03 17:17:00,
2013-05-03 10:26:00,53.7,47.0,30.30,WNW,297,4.0,9.0,78,0.00,,,0.00,Wunderground v.1.15,2013-05-03 17:26:00,
2013-05-03 10:32:00,53.5,47.1,30.30,NW,324,4.0,4.0,79,0.00,,,0.00,Wunderground v.1.15,2013-05-03 17:32:00,
2013-05-03 10:42:00,53.7,47.3,30.30,NNW,342,6.0,13.0,79,0.00,,,0.00,Wunderground v.1.15,2013-05-03 17:42:00,
2013-05-03 10:52:00,54.0,48.0,30.29,North,10,7.0,14.0,80,0.00,,,0.00,Wunderground v.1.15,2013-05-03 17:52:00,
2013-05-03 11:01:00,54.8,48.4,30.28,NNW,338,5.0,5.0,79,0.00,,,0.00,Wunderground v.1.15,2013-05-03 18:01:00,
2013-05-03 11:07:00,55.0,48.3,30.29,NW,306,5.0,8.0,78,0.00,,,0.00,Wunderground v.1.15,2013-05-03 18:07:00,
2013-05-03 11:17:00,54.8,48.1,30.29,NNW,327,6.0,10.0,78,0.00,,,0.00,Wunderground v.1.15,2013-05-03 18:17:00,
2013-05-03 11:27:00,55.2,48.5,30.28,NE,35,5.0,14.0,78,0.00,,,0.00,Wunderground v.1.15,2013-05-03 18:27:00,
2013-05-03 11:37:00,55.8,48.7,30.28,North,5,6.0,14.0,77,0.00,,,0.00,Wunderground v.1.15,2013-05-03 18:37:00,
2013-05-03 11:46:00,55.8,48.7,30.28,NW,308,5.0,11.0,77,0.00,,,0.00,Wunderground v.1.15,2013-05-03 18:46:00,
2013-05-03 11:52:00,55.5,48.4,30.28,NW,315,5.0,11.0,77,0.00,,,0.00,Wunderground v.1.15,2013-05-03 18:52:00,
2013-05-03 12:01:00,55.4,48.7,30.27,NW,311,5.0,12.0,78,0.00,,,0.00,Wunderground v.1.15,2013-05-03 19:01:00,
2013-05-03 12:07:00,54.8,48.1,30.27,NW,306,6.0,12.0,78,0.00,,,0.00,Wunderground v.1.15,2013-05-03 19:07:00,
2013-05-03 12:17:00,55.0,48.6,30.27,North,9,6.0,13.0,79,0.00,,,0.00,Wunderground v.1.15,2013-05-03 19:17:00,
2013-05-03 12:27:00,55.0,48.6,30.27,WNW,296,6.0,15.0,79,0.00,,,0.00,Wunderground v.1.15,2013-05-03 19:27:00,
2013-05-03 12:37:00,55.4,49.0,30.27,WNW,302,7.0,15.0,79,0.00,,,0.00,Wunderground v.1.15,2013-05-03 19:37:00,
2013-05-03 12:46:00,56.8,49.3,30.27,NNE,13,5.0,8.0,76,0.00,,,0.00,Wunderground v.1.15,2013-05-03 19:46:00,
2013-05-03 12:51:00,57.3,49.4,30.27,NNW,336,5.0,15.0,75,0.00,,,0.00,Wunderground v.1.15,2013-05-03 19:51:00,
2013-05-03 12:57:00,57.2,49.3,30.26,NNW,345,5.0,15.0,75,0.00,,,0.00,Wunderground v.1.15,2013-05-03 19:57:00,
2013-05-03 13:06:00,57.0,49.2,30.26,North,360,7.0,13.0,75,0.00,,,0.00,Wunderground v.1.15,2013-05-03 20:06:00,
2013-05-03 13:17:00,56.8,49.0,30.27,North,355,8.0,16.0,75,0.00,,,0.00,Wunderground v.1.15,2013-05-03 20:17:00,
2013-05-03 13:27:00,56.5,49.4,30.26,NNE,31,7.0,17.0,77,0.00,,,0.00,Wunderground v.1.15,2013-05-03 20:27:00,
2013-05-03 13:36:00,56.7,49.9,30.26,NW,324,6.0,16.0,78,0.00,,,0.00,Wunderground v.1.15,2013-05-03 20:36:00,
2013-05-03 13:42:00,56.7,49.9,30.26,North,5,6.0,14.0,78,0.00,,,0.00,Wunderground v.1.15,2013-05-03 20:42:00,
2013-05-03 13:52:00,57.2,50.1,30.26,North,355,6.0,6.0,77,0.00,,,0.00,Wunderground v.1.15,2013-05-03 20:52:00,
2013-05-03 14:02:00,57.0,50.2,30.26,NNE,28,7.0,13.0,78,0.00,,,0.00,Wunderground v.1.15,2013-05-03 21:02:00,
2013-05-03 14:11:00,57.1,49.6,30.25,NNE,31,7.0,15.0,76,0.00,,,0.00,Wunderground v.1.15,2013-05-03 21:11:00,
2013-05-03 14:16:00,57.2,49.3,30.25,North,5,8.0,19.0,75,0.00,,,0.00,Wunderground v.1.15,2013-05-03 21:16:00,
2013-05-03 14:22:00,56.9,49.4,30.24,NNW,333,10.0,17.0,76,0.00,,,0.00,Wunderground v.1.15,2013-05-03 21:22:00,
2013-05-03 14:31:00,57.5,49.6,30.24,NNE,15,9.0,20.0,75,0.00,,,0.00,Wunderground v.1.15,2013-05-03 21:31:00,
2013-05-03 14:37:00,57.4,49.5,30.24,North,5,10.0,20.0,75,0.00,,,0.00,Wunderground v.1.15,2013-05-03 21:37:00,
2013-05-03 14:47:00,57.2,49.3,30.24,NNW,342,12.0,12.0,75,0.00,,,0.00,Wunderground v.1.15,2013-05-03 21:47:00,
2013-05-03 14:57:00,56.6,49.1,30.24,North,349,12.0,27.0,76,0.00,,,0.00,Wunderground v.1.15,2013-05-03 21:57:00,
2013-05-03 15:07:00,56.4,48.9,30.23,North,5,12.0,20.0,76,0.00,,,0.00,Wunderground v.1.15,2013-05-03 22:07:00,
2013-05-03 15:16:00,56.8,49.3,30.23,NNE,21,10.0,21.0,76,0.00,,,0.00,Wunderground v.1.15,2013-05-03 22:16:00,
2013-05-03 15:27:00,57.0,49.5,30.22,NNW,344,9.0,16.0,76,0.00,,,0.00,Wunderground v.1.15,2013-05-03 22:27:00,
2013-05-03 15:37:00,57.6,49.4,30.22,NNW,343,8.0,16.0,74,0.00,,,0.00,Wunderground v.1.15,2013-05-03 22:37:00,
2013-05-03 15:42:00,57.8,49.6,30.21,NNW,344,8.0,14.0,74,0.00,,,0.00,Wunderground v.1.15,2013-05-03 22:42:00,
2013-05-03 15:51:00,58.1,49.5,30.21,North,5,7.0,7.0,73,0.00,,,0.00,Wunderground v.1.15,2013-05-03 22:51:00,
2013-05-03 15:57:00,58.2,49.2,30.21,North,5,7.0,13.0,72,0.00,,,0.00,Wunderground v.1.15,2013-05-03 22:57:00,
2013-05-03 16:07:00,57.3,49.1,30.21,NW,318,10.0,19.0,74,0.00,,,0.00,Wunderground v.1.15,2013-05-03 23:07:00,
2013-05-03 16:16:00,57.0,48.8,30.21,North,360,10.0,21.0,74,0.00,,,0.00,Wunderground v.1.15,2013-05-03 23:16:00,
2013-05-03 16:27:00,56.5,48.3,30.21,NNW,343,11.0,21.0,74,0.00,,,0.00,Wunderground v.1.15,2013-05-03 23:27:00,
2013-05-03 16:36:00,56.6,48.4,30.21,North,360,10.0,11.0,74,0.00,,,0.00,Wunderground v.1.15,2013-05-03 23:36:00,
2013-05-03 16:42:00,56.4,48.2,30.20,NNW,333,10.0,10.0,74,0.00,,,0.00,Wunderground v.1.15,2013-05-03 23:42:00,
2013-05-03 16:51:00,56.4,48.2,30.20,NNE,24,10.0,10.0,74,0.00,,,0.00,Wunderground v.1.15,2013-05-03 23:51:00,
2013-05-03 16:57:00,56.2,48.4,30.20,North,9,11.0,11.0,75,0.00,,,0.00,Wunderground v.1.15,2013-05-03 23:57:00,
2013-05-03 17:07:00,56.1,48.3,30.20,North,360,9.0,17.0,75,0.00,,,0.00,Wunderground v.1.15,2013-05-04 00:07:00,
2013-05-03 17:17:00,56.4,48.2,30.20,North,9,8.0,17.0,74,0.00,,,0.00,Wunderground v.1.15,2013-05-04 00:17:00,
2013-05-03 17:27:00,55.8,47.6,30.19,NNE,14,10.0,10.0,74,0.00,,,0.00,Wunderground v.1.15,2013-05-04 00:27:00,
2013-05-03 17:37:00,55.4,47.2,30.19,NNE,21,11.0,17.0,74,0.00,,,0.00,Wunderground v.1.15,2013-05-04 00:37:00,
2013-05-03 17:47:00,54.9,47.1,30.19,NNE,19,12.0,21.0,75,0.00,,,0.00,Wunderground v.1.15,2013-05-04 00:47:00,
2013-05-03 17:56:00,54.6,47.5,30.18,North,9,12.0,22.0,77,0.00,,,0.00,Wunderground v.1.15,2013-05-04 00:56:00,
2013-05-03 18:07:00,54.5,47.4,30.18,NNE,22,12.0,22.0,77,0.00,,,0.00,Wunderground v.1.15,2013-05-04 01:07:00,
2013-05-03 18:17:00,54.2,47.5,30.17,NNE,22,12.0,17.0,78,0.00,,,0.00,Wunderground v.1.15,2013-05-04 01:17:00,
2013-05-03 18:22:00,54.2,47.5,30.17,NNE,23,10.0,21.0,78,0.00,,,0.00,Wunderground v.1.15,2013-05-04 01:22:00,
2013-05-03 18:31:00,54.3,47.6,30.17,NNE,22,8.0,8.0,78,0.00,,,0.00,Wunderground v.1.15,2013-05-04 01:31:00,
2013-05-03 18:37:00,54.1,47.4,30.17,North,355,8.0,16.0,78,0.00,,,0.00,Wunderground v.1.15,2013-05-04 01:37:00,
2013-05-03 18:47:00,53.9,47.5,30.16,North,5,8.0,17.0,79,0.00,,,0.00,Wunderground v.1.15,2013-05-04 01:47:00,
2013-05-03 18:56:00,54.4,48.0,30.16,NE,38,5.0,9.0,79,0.00,,,0.00,Wunderground v.1.15,2013-05-04 01:56:00,
2013-05-03 19:07:00,53.7,47.3,30.16,NNW,342,6.0,15.0,79,0.00,,,0.00,Wunderground v.1.15,2013-05-04 02:07:00,
2013-05-03 19:16:00,53.1,47.1,30.16,North,5,7.0,17.0,80,0.00,,,0.00,Wunderground v.1.15,2013-05-04 02:16:00,
2013-05-03 19:27:00,52.2,46.5,30.16,North,349,9.0,19.0,81,0.00,,,0.00,Wunderground v.1.15,2013-05-04 02:27:00,
2013-05-03 19:36:00,51.7,46.4,30.16,NNE,17,9.0,18.0,82,0.00,,,0.00,Wunderground v.1.15,2013-05-04 02:36:00,
2013-05-03 19:46:00,51.4,46.7,30.16,North,355,9.0,17.0,84,0.00,,,0.00,Wunderground v.1.15,2013-05-04 02:46:00,
2013-05-03 19:52:00,51.3,46.6,30.16,NNE,12,9.0,21.0,84,0.00,,,0.00,Wunderground v.1.15,2013-05-04 02:52:00,
2013-05-03 20:01:00,50.9,46.2,30.16,NNE,20,10.0,17.0,84,0.00,,,0.00,Wunderground v.1.15,2013-05-04 03:01:00,
2013-05-03 20:07:00,50.8,46.5,30.16,NE,39,10.0,17.0,85,0.00,,,0.00,Wunderground v.1.15,2013-05-04 03:07:00,
2013-05-03 20:16:00,50.6,46.3,30.16,North,5,8.0,18.0,85,0.00,,,0.00,Wunderground v.1.15,2013-05-04 03:16:00,
2013-05-03 20:27:00,50.2,46.2,30.16,North,355,8.0,16.0,86,0.00,,,0.00,Wunderground v.1.15,2013-05-04 03:27:00,
2013-05-03 20:36:00,49.9,45.9,30.16,NE,55,8.0,15.0,86,0.00,,,0.00,Wunderground v.1.15,2013-05-04 03:36:00,
2013-05-03 20:47:00,49.6,45.9,30.16,North,5,9.0,16.0,87,0.00,,,0.00,Wunderground v.1.15,2013-05-04 03:47:00,
2013-05-03 20:56:00,49.5,46.1,30.16,North,355,9.0,14.0,88,0.00,,,0.00,Wunderground v.1.15,2013-05-04 03:56:00,
2013-05-03 21:01:00,49.5,46.1,30.16,North,360,8.0,8.0,88,0.00,,,0.00,Wunderground v.1.15,2013-05-04 04:01:00,
2013-05-03 21:07:00,49.6,45.9,30.16,NNW,336,6.0,9.0,87,0.00,,,0.00,Wunderground v.1.15,2013-05-04 04:07:00,
2013-05-03 21:12:00,49.7,46.0,30.16,NW,312,5.0,8.0,87,0.00,,,0.00,Wunderground v.1.15,2013-05-04 04:12:00,
2013-05-03 21:17:00,49.6,45.9,30.17,North,5,4.0,9.0,87,0.00,,,0.00,Wunderground v.1.15,2013-05-04 04:17:00,
2013-05-03 21:26:00,49.5,45.8,30.17,North,5,2.0,5.0,87,0.00,,,0.00,Wunderground v.1.15,2013-05-04 04:26:00,
2013-05-03 21:37:00,49.6,45.9,30.17,North,5,1.0,3.0,87,0.00,,,0.00,Wunderground v.1.15,2013-05-04 04:37:00,
2013-05-03 21:46:00,49.9,46.2,30.17,North,5,2.0,5.0,87,0.00,,,0.00,Wunderground v.1.15,2013-05-04 04:46:00,
2013-05-03 21:51:00,49.9,45.9,30.17,NNW,343,3.0,7.0,86,0.00,,,0.00,Wunderground v.1.15,2013-05-04 04:51:00,
2013-05-03 21:57:00,49.9,45.9,30.17,NNW,346,3.0,7.0,86,0.00,,,0.00,Wunderground v.1.15,2013-05-04 04:57:00,
2013-05-03 22:06:00,49.8,45.8,30.16,NNW,348,1.0,2.0,86,0.00,,,0.00,Wunderground v.1.15,2013-05-04 05:06:00,
2013-05-03 22:12:00,49.7,45.7,30.16,North,350,1.0,1.0,86,0.00,,,0.00,Wunderground v.1.15,2013-05-04 05:12:00,
2013-05-03 22:22:00,49.4,45.4,30.16,North,350,0.0,1.0,86,0.00,,,0.00,Wunderground v.1.15,2013-05-04 05:22:00,
2013-05-03 22:32:00,49.3,45.6,30.16,North,350,0.0,1.0,87,0.00,,,0.00,Wunderground v.1.15,2013-05-04 05:32:00,
2013-05-03 22:37:00,49.3,45.6,30.16,North,350,0.0,1.0,87,0.00,,,0.00,Wunderground v.1.15,2013-05-04 05:37:00,
2013-05-03 22:47:00,49.2,45.5,30.15,North,350,0.0,0.0,87,0.00,,,0.00,Wunderground v.1.15,2013-05-04 05:47:00,
2013-05-03 22:56:00,48.8,44.8,30.14,North,350,0.0,1.0,86,0.00,,,0.00,Wunderground v.1.15,2013-05-04 05:56:00,
2013-05-03 23:02:00,48.7,45.0,30.14,North,350,0.0,2.0,87,0.00,,,0.00,Wunderground v.1.15,2013-05-04 06:02:00,
2013-05-03 23:12:00,48.7,45.6,30.14,North,350,1.0,1.0,89,0.00,,,0.00,Wunderground v.1.15,2013-05-04 06:12:00,
2013-05-03 23:22:00,49.2,46.1,30.14,North,350,1.0,3.0,89,0.00,,,0.00,Wunderground v.1.15,2013-05-04 06:22:00,
2013-05-03 23:32:00,49.0,45.6,30.14,North,350,1.0,1.0,88,0.00,,,0.00,Wunderground v.1.15,2013-05-04 06:32:00,
2013-05-03 23:42:00,48.6,45.2,30.14,North,350,1.0,4.0,88,0.00,,,0.00,Wunderground v.1.15,2013-05-04 06:42:00,
2013-05-03 23:51:00,48.5,45.4,30.14,North,350,1.0,1.0,89,0.00,,,0.00,Wunderground v.1.15,2013-05-04 06:51:00,
2013-05-03 23:57:00,48.5,45.4,30.14,North,350,1.0,2.0,89,0.00,,,0.00,Wunderground v.1.15,2013-05-04 06:57:00,